sensor_id;sensor_type;location;lat;lon;timestamp;P1;durP1;ratioP1;P2;durP2;ratioP2
7013;SDS011;3547;50.774;12.918;2023-09-19T00:00:15;2.58;;;0.90;;
7013;SDS011;3547;50.774;12.918;2023-09-19T00:02:45;2.55;;;0.75;;
7013;SDS011;3547;50.774;12.918;2023-09-19T00:05:17;2.30;;;1.10;;
7013;SDS011;3547;50.774;12.918;2023-09-19T00:07:43;0.90;;;0.90;;
7013;SDS011;3547;50.774;12.918;2023-09-19T00:10:10;0.95;;;0.90;;
7013;SDS011;3547;50.774;12.918;2023-09-19T00:12:36;1.25;;;0.75;;
7013;SDS011;3547;50.774;12.918;2023-09-19T00:15:03;2.22;;;1.13;;
7013;SDS011;3547;50.774;12.918;2023-09-19T00:17:29;2.42;;;0.82;;
7013;SDS011;3547;50.774;12.918;2023-09-19T00:19:57;2.67;;;0.98;;
7013;SDS011;3547;50.774;12.918;2023-09-19T00:22:23;1.27;;;0.98;;
7013;SDS011;3547;50.774;12.918;2023-09-19T00:24:51;1.08;;;0.93;;
7013;SDS011;3547;50.774;12.918;2023-09-19T00:27:19;2.25;;;0.93;;
7013;SDS011;3547;50.774;12.918;2023-09-19T00:29:45;2.28;;;0.90;;
7013;SDS011;3547;50.774;12.918;2023-09-19T00:32:11;1.10;;;0.88;;
7013;SDS011;3547;50.774;12.918;2023-09-19T00:34:37;3.03;;;1.13;;
7013;SDS011;3547;50.774;12.918;2023-09-19T00:37:03;0.90;;;0.80;;
7013;SDS011;3547;50.774;12.918;2023-09-19T00:39:29;0.98;;;0.68;;
7013;SDS011;3547;50.774;12.918;2023-09-19T00:41:57;1.50;;;0.93;;
7013;SDS011;3547;50.774;12.918;2023-09-19T00:44:23;2.03;;;0.77;;
7013;SDS011;3547;50.774;12.918;2023-09-19T00:46:49;1.60;;;0.95;;
7013;SDS011;3547;50.774;12.918;2023-09-19T00:49:17;1.42;;;0.98;;
7013;SDS011;3547;50.774;12.918;2023-09-19T00:51:46;3.15;;;0.98;;
7013;SDS011;3547;50.774;12.918;2023-09-19T00:54:13;0.60;;;0.60;;
7013;SDS011;3547;50.774;12.918;2023-09-19T00:56:44;2.25;;;0.70;;
7013;SDS011;3547;50.774;12.918;2023-09-19T00:59:11;4.43;;;0.88;;
7013;SDS011;3547;50.774;12.918;2023-09-19T01:01:37;1.25;;;0.60;;
7013;SDS011;3547;50.774;12.918;2023-09-19T01:04:05;0.60;;;0.60;;
7013;SDS011;3547;50.774;12.918;2023-09-19T01:06:32;0.57;;;0.43;;
7013;SDS011;3547;50.774;12.918;2023-09-19T01:08:58;0.40;;;0.38;;
7013;SDS011;3547;50.774;12.918;2023-09-19T01:11:28;1.27;;;0.80;;
7013;SDS011;3547;50.774;12.918;2023-09-19T01:22:31;0.65;;;0.65;;
7013;SDS011;3547;50.774;12.918;2023-09-19T01:28:20;1.05;;;0.73;;
7013;SDS011;3547;50.774;12.918;2023-09-19T01:30:57;1.42;;;0.70;;
7013;SDS011;3547;50.774;12.918;2023-09-19T01:33:25;0.93;;;0.80;;
7013;SDS011;3547;50.774;12.918;2023-09-19T01:35:51;1.67;;;0.70;;
7013;SDS011;3547;50.774;12.918;2023-09-19T01:38:24;0.75;;;0.60;;
7013;SDS011;3547;50.774;12.918;2023-09-19T01:41:00;1.52;;;0.63;;
7013;SDS011;3547;50.774;12.918;2023-09-19T01:43:35;0.63;;;0.50;;
7013;SDS011;3547;50.774;12.918;2023-09-19T01:46:10;0.90;;;0.80;;
7013;SDS011;3547;50.774;12.918;2023-09-19T01:48:43;0.63;;;0.50;;
7013;SDS011;3547;50.774;12.918;2023-09-19T01:51:19;2.78;;;0.70;;
7013;SDS011;3547;50.774;12.918;2023-09-19T01:56:28;1.08;;;0.80;;
7013;SDS011;3547;50.774;12.918;2023-09-19T01:59:16;0.50;;;0.50;;
7013;SDS011;3547;50.774;12.918;2023-09-19T02:01:53;0.60;;;0.60;;
7013;SDS011;3547;50.774;12.918;2023-09-19T02:04:20;1.25;;;0.90;;
7013;SDS011;3547;50.774;12.918;2023-09-19T02:06:46;0.93;;;0.60;;
7013;SDS011;3547;50.774;12.918;2023-09-19T02:09:13;0.55;;;0.55;;
7013;SDS011;3547;50.774;12.918;2023-09-19T02:11:40;1.10;;;0.70;;
7013;SDS011;3547;50.774;12.918;2023-09-19T02:14:07;1.70;;;0.90;;
7013;SDS011;3547;50.774;12.918;2023-09-19T02:16:34;1.10;;;0.93;;
7013;SDS011;3547;50.774;12.918;2023-09-19T02:25:54;2.38;;;0.82;;
7013;SDS011;3547;50.774;12.918;2023-09-19T02:28:23;0.88;;;0.88;;
7013;SDS011;3547;50.774;12.918;2023-09-19T02:30:49;1.13;;;0.80;;
7013;SDS011;3547;50.774;12.918;2023-09-19T02:33:16;0.55;;;0.55;;
7013;SDS011;3547;50.774;12.918;2023-09-19T02:35:45;0.73;;;0.73;;
7013;SDS011;3547;50.774;12.918;2023-09-19T02:38:11;3.97;;;1.30;;
7013;SDS011;3547;50.774;12.918;2023-09-19T02:40:38;1.38;;;0.70;;
7013;SDS011;3547;50.774;12.918;2023-09-19T02:43:04;0.70;;;0.70;;
7013;SDS011;3547;50.774;12.918;2023-09-19T02:45:31;2.40;;;0.80;;
7013;SDS011;3547;50.774;12.918;2023-09-19T02:47:57;1.02;;;0.77;;
7013;SDS011;3547;50.774;12.918;2023-09-19T02:50:24;1.25;;;1.15;;
7013;SDS011;3547;50.774;12.918;2023-09-19T02:52:50;1.40;;;0.93;;
7013;SDS011;3547;50.774;12.918;2023-09-19T02:55:17;1.08;;;0.77;;
7013;SDS011;3547;50.774;12.918;2023-09-19T02:57:48;1.40;;;0.73;;
7013;SDS011;3547;50.774;12.918;2023-09-19T03:00:16;3.22;;;0.90;;
7013;SDS011;3547;50.774;12.918;2023-09-19T03:02:50;0.77;;;0.77;;
7013;SDS011;3547;50.774;12.918;2023-09-19T03:05:19;1.33;;;0.90;;
7013;SDS011;3547;50.774;12.918;2023-09-19T03:07:46;1.00;;;0.90;;
7013;SDS011;3547;50.774;12.918;2023-09-19T03:10:16;0.65;;;0.65;;
7013;SDS011;3547;50.774;12.918;2023-09-19T03:12:43;1.08;;;0.85;;
7013;SDS011;3547;50.774;12.918;2023-09-19T03:15:10;1.30;;;0.90;;
7013;SDS011;3547;50.774;12.918;2023-09-19T03:17:37;0.65;;;0.65;;
7013;SDS011;3547;50.774;12.918;2023-09-19T03:20:03;0.85;;;0.85;;
7013;SDS011;3547;50.774;12.918;2023-09-19T03:22:33;0.60;;;0.60;;
7013;SDS011;3547;50.774;12.918;2023-09-19T03:25:00;1.50;;;0.80;;
7013;SDS011;3547;50.774;12.918;2023-09-19T03:27:26;0.82;;;0.82;;
7013;SDS011;3547;50.774;12.918;2023-09-19T03:29:52;1.75;;;0.88;;
7013;SDS011;3547;50.774;12.918;2023-09-19T03:32:19;1.30;;;1.20;;
7013;SDS011;3547;50.774;12.918;2023-09-19T03:34:45;0.90;;;0.90;;
7013;SDS011;3547;50.774;12.918;2023-09-19T03:37:14;1.13;;;0.85;;
7013;SDS011;3547;50.774;12.918;2023-09-19T03:39:40;1.13;;;0.85;;
7013;SDS011;3547;50.774;12.918;2023-09-19T03:42:06;0.85;;;0.85;;
7013;SDS011;3547;50.774;12.918;2023-09-19T03:44:32;1.10;;;1.00;;
7013;SDS011;3547;50.774;12.918;2023-09-19T03:46:59;2.03;;;0.88;;
7013;SDS011;3547;50.774;12.918;2023-09-19T03:49:25;1.20;;;1.10;;
7013;SDS011;3547;50.774;12.918;2023-09-19T03:51:51;1.08;;;0.95;;
7013;SDS011;3547;50.774;12.918;2023-09-19T03:54:20;1.20;;;0.90;;
7013;SDS011;3547;50.774;12.918;2023-09-19T03:56:46;1.02;;;0.90;;
7013;SDS011;3547;50.774;12.918;2023-09-19T03:59:13;2.60;;;0.93;;
7013;SDS011;3547;50.774;12.918;2023-09-19T04:01:39;1.63;;;0.98;;
7013;SDS011;3547;50.774;12.918;2023-09-19T04:04:06;1.00;;;1.00;;
7013;SDS011;3547;50.774;12.918;2023-09-19T04:06:36;1.00;;;0.98;;
7013;SDS011;3547;50.774;12.918;2023-09-19T04:09:03;1.15;;;0.95;;
7013;SDS011;3547;50.774;12.918;2023-09-19T04:11:29;0.80;;;0.80;;
7013;SDS011;3547;50.774;12.918;2023-09-19T04:13:56;1.40;;;1.02;;
7013;SDS011;3547;50.774;12.918;2023-09-19T04:16:23;0.80;;;0.73;;
7013;SDS011;3547;50.774;12.918;2023-09-19T04:18:49;1.00;;;1.00;;
7013;SDS011;3547;50.774;12.918;2023-09-19T04:21:15;1.13;;;1.00;;
7013;SDS011;3547;50.774;12.918;2023-09-19T04:23:42;2.20;;;1.05;;
7013;SDS011;3547;50.774;12.918;2023-09-19T04:26:08;1.60;;;1.08;;
7013;SDS011;3547;50.774;12.918;2023-09-19T04:28:34;0.98;;;0.90;;
7013;SDS011;3547;50.774;12.918;2023-09-19T04:31:03;1.00;;;0.90;;
7013;SDS011;3547;50.774;12.918;2023-09-19T04:33:30;2.58;;;0.80;;
7013;SDS011;3547;50.774;12.918;2023-09-19T04:35:56;1.30;;;0.90;;
7013;SDS011;3547;50.774;12.918;2023-09-19T04:38:22;2.30;;;1.15;;
7013;SDS011;3547;50.774;12.918;2023-09-19T04:40:49;1.30;;;1.20;;
7013;SDS011;3547;50.774;12.918;2023-09-19T04:43:15;0.65;;;0.65;;
7013;SDS011;3547;50.774;12.918;2023-09-19T04:45:41;2.25;;;1.17;;
7013;SDS011;3547;50.774;12.918;2023-09-19T04:48:07;1.27;;;1.10;;
7013;SDS011;3547;50.774;12.918;2023-09-19T04:50:34;3.22;;;1.02;;
7013;SDS011;3547;50.774;12.918;2023-09-19T04:53:00;1.38;;;0.90;;
7013;SDS011;3547;50.774;12.918;2023-09-19T04:55:26;1.25;;;0.90;;
7013;SDS011;3547;50.774;12.918;2023-09-19T04:57:53;1.67;;;1.30;;
7013;SDS011;3547;50.774;12.918;2023-09-19T05:00:21;1.17;;;1.08;;
7013;SDS011;3547;50.774;12.918;2023-09-19T05:02:56;0.65;;;0.65;;
7013;SDS011;3547;50.774;12.918;2023-09-19T05:05:23;1.17;;;0.80;;
7013;SDS011;3547;50.774;12.918;2023-09-19T05:07:50;1.15;;;1.00;;
7013;SDS011;3547;50.774;12.918;2023-09-19T05:10:19;0.75;;;0.75;;
7013;SDS011;3547;50.774;12.918;2023-09-19T05:12:45;0.80;;;0.80;;
7013;SDS011;3547;50.774;12.918;2023-09-19T05:15:12;1.90;;;1.05;;
7013;SDS011;3547;50.774;12.918;2023-09-19T05:17:49;3.97;;;1.00;;
7013;SDS011;3547;50.774;12.918;2023-09-19T05:20:17;0.70;;;0.70;;
7013;SDS011;3547;50.774;12.918;2023-09-19T05:23:01;2.10;;;1.00;;
7013;SDS011;3547;50.774;12.918;2023-09-19T05:25:31;1.05;;;0.90;;
7013;SDS011;3547;50.774;12.918;2023-09-19T05:27:58;0.85;;;0.85;;
7013;SDS011;3547;50.774;12.918;2023-09-19T05:30:26;1.17;;;0.80;;
7013;SDS011;3547;50.774;12.918;2023-09-19T05:32:55;1.13;;;0.80;;
7013;SDS011;3547;50.774;12.918;2023-09-19T05:35:22;1.05;;;0.90;;
7013;SDS011;3547;50.774;12.918;2023-09-19T05:37:51;1.10;;;1.00;;
7013;SDS011;3547;50.774;12.918;2023-09-19T05:40:18;1.17;;;0.85;;
7013;SDS011;3547;50.774;12.918;2023-09-19T05:42:45;0.82;;;0.75;;
7013;SDS011;3547;50.774;12.918;2023-09-19T05:45:13;0.60;;;0.60;;
7013;SDS011;3547;50.774;12.918;2023-09-19T05:47:48;0.88;;;0.88;;
7013;SDS011;3547;50.774;12.918;2023-09-19T05:50:17;0.63;;;0.63;;
7013;SDS011;3547;50.774;12.918;2023-09-19T05:52:47;0.93;;;0.75;;
7013;SDS011;3547;50.774;12.918;2023-09-19T05:55:18;1.20;;;0.90;;
7013;SDS011;3547;50.774;12.918;2023-09-19T05:57:49;0.70;;;0.70;;
7013;SDS011;3547;50.774;12.918;2023-09-19T06:00:23;0.93;;;0.80;;
7013;SDS011;3547;50.774;12.918;2023-09-19T06:02:53;2.60;;;1.10;;
7013;SDS011;3547;50.774;12.918;2023-09-19T06:05:20;1.05;;;0.95;;
7013;SDS011;3547;50.774;12.918;2023-09-19T06:07:47;3.20;;;0.98;;
7013;SDS011;3547;50.774;12.918;2023-09-19T06:10:14;1.25;;;1.00;;
7013;SDS011;3547;50.774;12.918;2023-09-19T06:12:40;1.88;;;0.73;;
7013;SDS011;3547;50.774;12.918;2023-09-19T06:15:10;0.80;;;0.80;;
7013;SDS011;3547;50.774;12.918;2023-09-19T06:17:48;1.13;;;1.02;;
7013;SDS011;3547;50.774;12.918;2023-09-19T06:20:15;2.15;;;1.00;;
7013;SDS011;3547;50.774;12.918;2023-09-19T06:22:42;0.98;;;0.90;;
7013;SDS011;3547;50.774;12.918;2023-09-19T06:25:10;1.10;;;0.93;;
7013;SDS011;3547;50.774;12.918;2023-09-19T06:27:40;5.22;;;0.88;;
7013;SDS011;3547;50.774;12.918;2023-09-19T06:30:09;0.80;;;0.80;;
7013;SDS011;3547;50.774;12.918;2023-09-19T06:32:43;0.80;;;0.75;;
7013;SDS011;3547;50.774;12.918;2023-09-19T06:35:10;0.80;;;0.80;;
7013;SDS011;3547;50.774;12.918;2023-09-19T06:37:37;2.40;;;1.15;;
7013;SDS011;3547;50.774;12.918;2023-09-19T06:40:13;0.80;;;0.80;;
7013;SDS011;3547;50.774;12.918;2023-09-19T06:42:44;1.25;;;0.98;;
7013;SDS011;3547;50.774;12.918;2023-09-19T06:45:11;1.00;;;0.90;;
7013;SDS011;3547;50.774;12.918;2023-09-19T06:47:46;0.80;;;0.80;;
7013;SDS011;3547;50.774;12.918;2023-09-19T06:50:16;1.00;;;0.90;;
7013;SDS011;3547;50.774;12.918;2023-09-19T06:52:48;0.73;;;0.73;;
7013;SDS011;3547;50.774;12.918;2023-09-19T06:55:16;0.95;;;0.80;;
7013;SDS011;3547;50.774;12.918;2023-09-19T06:57:43;1.13;;;0.90;;
7013;SDS011;3547;50.774;12.918;2023-09-19T07:00:10;1.52;;;0.70;;
7013;SDS011;3547;50.774;12.918;2023-09-19T07:02:57;0.90;;;0.90;;
7013;SDS011;3547;50.774;12.918;2023-09-19T07:05:29;3.65;;;1.08;;
7013;SDS011;3547;50.774;12.918;2023-09-19T07:07:57;1.20;;;1.10;;
7013;SDS011;3547;50.774;12.918;2023-09-19T07:10:24;1.15;;;0.98;;
7013;SDS011;3547;50.774;12.918;2023-09-19T07:15:23;1.25;;;0.75;;
7013;SDS011;3547;50.774;12.918;2023-09-19T07:17:53;1.15;;;1.05;;
7013;SDS011;3547;50.774;12.918;2023-09-19T07:20:22;0.63;;;0.63;;
7013;SDS011;3547;50.774;12.918;2023-09-19T07:22:52;0.98;;;0.85;;
7013;SDS011;3547;50.774;12.918;2023-09-19T07:25:20;1.73;;;1.05;;
7013;SDS011;3547;50.774;12.918;2023-09-19T07:27:46;2.13;;;0.80;;
7013;SDS011;3547;50.774;12.918;2023-09-19T07:30:13;1.60;;;0.70;;
7013;SDS011;3547;50.774;12.918;2023-09-19T07:32:42;0.80;;;0.80;;
7013;SDS011;3547;50.774;12.918;2023-09-19T07:35:08;0.68;;;0.68;;
7013;SDS011;3547;50.774;12.918;2023-09-19T07:37:34;1.05;;;0.93;;
7013;SDS011;3547;50.774;12.918;2023-09-19T07:40:05;0.98;;;0.85;;
7013;SDS011;3547;50.774;12.918;2023-09-19T07:42:36;0.60;;;0.60;;
7013;SDS011;3547;50.774;12.918;2023-09-19T07:45:09;0.68;;;0.68;;
7013;SDS011;3547;50.774;12.918;2023-09-19T07:47:49;0.73;;;0.73;;
7013;SDS011;3547;50.774;12.918;2023-09-19T07:50:16;0.95;;;0.90;;
7013;SDS011;3547;50.774;12.918;2023-09-19T07:52:44;0.75;;;0.60;;
7013;SDS011;3547;50.774;12.918;2023-09-19T07:55:11;0.65;;;0.65;;
7013;SDS011;3547;50.774;12.918;2023-09-19T07:57:43;1.13;;;0.98;;
7013;SDS011;3547;50.774;12.918;2023-09-19T08:00:09;1.13;;;0.88;;
7013;SDS011;3547;50.774;12.918;2023-09-19T08:02:36;0.95;;;0.80;;
7013;SDS011;3547;50.774;12.918;2023-09-19T08:05:06;3.25;;;1.00;;
7013;SDS011;3547;50.774;12.918;2023-09-19T08:07:36;0.88;;;0.88;;
7013;SDS011;3547;50.774;12.918;2023-09-19T08:10:04;0.77;;;0.70;;
7013;SDS011;3547;50.774;12.918;2023-09-19T08:12:33;1.17;;;1.08;;
7013;SDS011;3547;50.774;12.918;2023-09-19T08:15:04;1.25;;;0.88;;
7013;SDS011;3547;50.774;12.918;2023-09-19T08:17:34;2.63;;;1.23;;
7013;SDS011;3547;50.774;12.918;2023-09-19T08:20:01;1.20;;;0.95;;
7013;SDS011;3547;50.774;12.918;2023-09-19T08:22:31;1.15;;;1.00;;
7013;SDS011;3547;50.774;12.918;2023-09-19T08:25:00;0.65;;;0.63;;
7013;SDS011;3547;50.774;12.918;2023-09-19T08:27:30;1.90;;;0.88;;
7013;SDS011;3547;50.774;12.918;2023-09-19T08:29:56;2.80;;;0.70;;
7013;SDS011;3547;50.774;12.918;2023-09-19T08:32:22;1.38;;;0.90;;
7013;SDS011;3547;50.774;12.918;2023-09-19T08:34:51;0.93;;;0.88;;
7013;SDS011;3547;50.774;12.918;2023-09-19T08:37:17;0.95;;;0.90;;
7013;SDS011;3547;50.774;12.918;2023-09-19T08:39:44;0.63;;;0.63;;
7013;SDS011;3547;50.774;12.918;2023-09-19T08:42:10;1.05;;;0.95;;
7013;SDS011;3547;50.774;12.918;2023-09-19T08:44:38;0.65;;;0.65;;
7013;SDS011;3547;50.774;12.918;2023-09-19T08:47:10;0.90;;;0.88;;
7013;SDS011;3547;50.774;12.918;2023-09-19T08:52:37;0.82;;;0.82;;
7013;SDS011;3547;50.774;12.918;2023-09-19T08:55:13;1.42;;;1.10;;
7013;SDS011;3547;50.774;12.918;2023-09-19T08:57:46;0.75;;;0.75;;
7013;SDS011;3547;50.774;12.918;2023-09-19T09:00:15;0.80;;;0.80;;
7013;SDS011;3547;50.774;12.918;2023-09-19T09:02:46;0.80;;;0.80;;
7013;SDS011;3547;50.774;12.918;2023-09-19T09:05:13;1.77;;;0.98;;
7013;SDS011;3547;50.774;12.918;2023-09-19T09:07:41;0.70;;;0.60;;
7013;SDS011;3547;50.774;12.918;2023-09-19T09:10:09;0.80;;;0.80;;
7013;SDS011;3547;50.774;12.918;2023-09-19T09:12:35;0.63;;;0.63;;
7013;SDS011;3547;50.774;12.918;2023-09-19T09:15:03;1.00;;;1.00;;
7013;SDS011;3547;50.774;12.918;2023-09-19T09:17:29;1.75;;;0.88;;
7013;SDS011;3547;50.774;12.918;2023-09-19T09:19:56;1.08;;;0.80;;
7013;SDS011;3547;50.774;12.918;2023-09-19T09:22:22;1.45;;;1.15;;
7013;SDS011;3547;50.774;12.918;2023-09-19T09:24:56;1.00;;;0.90;;
7013;SDS011;3547;50.774;12.918;2023-09-19T09:27:30;0.50;;;0.50;;
7013;SDS011;3547;50.774;12.918;2023-09-19T09:29:58;3.63;;;0.55;;
7013;SDS011;3547;50.774;12.918;2023-09-19T09:32:28;1.70;;;0.85;;
7013;SDS011;3547;50.774;12.918;2023-09-19T09:35:00;1.45;;;0.75;;
7013;SDS011;3547;50.774;12.918;2023-09-19T09:37:27;0.57;;;0.57;;
7013;SDS011;3547;50.774;12.918;2023-09-19T09:39:56;1.10;;;0.68;;
7013;SDS011;3547;50.774;12.918;2023-09-19T09:42:33;2.33;;;0.82;;
7013;SDS011;3547;50.774;12.918;2023-09-19T09:54:35;0.90;;;0.60;;
7013;SDS011;3547;50.774;12.918;2023-09-19T09:57:07;1.15;;;0.80;;
7013;SDS011;3547;50.774;12.918;2023-09-19T09:59:46;2.95;;;0.77;;
7013;SDS011;3547;50.774;12.918;2023-09-19T10:02:13;0.65;;;0.50;;
7013;SDS011;3547;50.774;12.918;2023-09-19T10:04:45;1.70;;;0.60;;
7013;SDS011;3547;50.774;12.918;2023-09-19T10:07:30;0.40;;;0.32;;
7013;SDS011;3547;50.774;12.918;2023-09-19T10:10:29;0.63;;;0.55;;
7013;SDS011;3547;50.774;12.918;2023-09-19T10:13:19;0.40;;;0.40;;
7013;SDS011;3547;50.774;12.918;2023-09-19T10:15:51;1.13;;;0.70;;
7013;SDS011;3547;50.774;12.918;2023-09-19T10:18:24;0.40;;;0.40;;
7013;SDS011;3547;50.774;12.918;2023-09-19T10:20:53;0.77;;;0.57;;
7013;SDS011;3547;50.774;12.918;2023-09-19T10:23:21;0.63;;;0.60;;
7013;SDS011;3547;50.774;12.918;2023-09-19T10:25:49;0.63;;;0.63;;
7013;SDS011;3547;50.774;12.918;2023-09-19T10:28:16;1.00;;;0.60;;
7013;SDS011;3547;50.774;12.918;2023-09-19T10:30:47;0.73;;;0.55;;
7013;SDS011;3547;50.774;12.918;2023-09-19T10:33:16;0.60;;;0.60;;
7013;SDS011;3547;50.774;12.918;2023-09-19T10:35:46;0.50;;;0.47;;
7013;SDS011;3547;50.774;12.918;2023-09-19T10:38:14;0.40;;;0.35;;
7013;SDS011;3547;50.774;12.918;2023-09-19T10:40:53;1.58;;;0.90;;
7013;SDS011;3547;50.774;12.918;2023-09-19T10:43:25;0.63;;;0.63;;
7013;SDS011;3547;50.774;12.918;2023-09-19T10:45:54;0.65;;;0.63;;
7013;SDS011;3547;50.774;12.918;2023-09-19T10:48:26;0.70;;;0.70;;
7013;SDS011;3547;50.774;12.918;2023-09-19T10:50:57;0.68;;;0.50;;
7013;SDS011;3547;50.774;12.918;2023-09-19T10:53:39;0.50;;;0.50;;
7013;SDS011;3547;50.774;12.918;2023-09-19T10:56:18;0.70;;;0.70;;
7013;SDS011;3547;50.774;12.918;2023-09-19T11:02:16;0.77;;;0.65;;
7013;SDS011;3547;50.774;12.918;2023-09-19T11:04:43;1.50;;;1.08;;
7013;SDS011;3547;50.774;12.918;2023-09-19T11:07:11;1.17;;;0.88;;
7013;SDS011;3547;50.774;12.918;2023-09-19T11:09:55;1.30;;;0.90;;
7013;SDS011;3547;50.774;12.918;2023-09-19T11:14:56;0.70;;;0.70;;
7013;SDS011;3547;50.774;12.918;2023-09-19T11:17:36;0.65;;;0.65;;
7013;SDS011;3547;50.774;12.918;2023-09-19T11:30:39;1.05;;;0.47;;
7013;SDS011;3547;50.774;12.918;2023-09-19T11:36:04;0.80;;;0.70;;
7013;SDS011;3547;50.774;12.918;2023-09-19T11:43:52;1.10;;;0.90;;
7013;SDS011;3547;50.774;12.918;2023-09-19T11:46:30;1.58;;;0.95;;
7013;SDS011;3547;50.774;12.918;2023-09-19T11:49:07;0.98;;;0.85;;
7013;SDS011;3547;50.774;12.918;2023-09-19T11:51:52;1.33;;;1.00;;
7013;SDS011;3547;50.774;12.918;2023-09-19T11:54:18;1.10;;;1.00;;
7013;SDS011;3547;50.774;12.918;2023-09-19T11:56:48;1.25;;;1.10;;
7013;SDS011;3547;50.774;12.918;2023-09-19T11:59:23;0.70;;;0.57;;
7013;SDS011;3547;50.774;12.918;2023-09-19T12:01:50;1.42;;;0.98;;
7013;SDS011;3547;50.774;12.918;2023-09-19T12:04:40;1.55;;;0.88;;
7013;SDS011;3547;50.774;12.918;2023-09-19T12:07:10;0.80;;;0.80;;
7013;SDS011;3547;50.774;12.918;2023-09-19T12:12:24;1.25;;;1.10;;
7013;SDS011;3547;50.774;12.918;2023-09-19T12:14:54;1.52;;;1.20;;
7013;SDS011;3547;50.774;12.918;2023-09-19T12:20:09;0.93;;;0.70;;
7013;SDS011;3547;50.774;12.918;2023-09-19T12:22:42;1.88;;;0.90;;
7013;SDS011;3547;50.774;12.918;2023-09-19T12:25:10;1.00;;;0.93;;
7013;SDS011;3547;50.774;12.918;2023-09-19T12:27:44;0.73;;;0.73;;
7013;SDS011;3547;50.774;12.918;2023-09-19T12:30:18;5.20;;;1.02;;
7013;SDS011;3547;50.774;12.918;2023-09-19T12:32:46;2.55;;;0.73;;
7013;SDS011;3547;50.774;12.918;2023-09-19T12:35:30;0.80;;;0.80;;
7013;SDS011;3547;50.774;12.918;2023-09-19T12:38:00;1.30;;;0.93;;
7013;SDS011;3547;50.774;12.918;2023-09-19T12:40:28;1.02;;;0.90;;
7013;SDS011;3547;50.774;12.918;2023-09-19T12:42:58;1.23;;;1.10;;
7013;SDS011;3547;50.774;12.918;2023-09-19T12:45:26;1.95;;;1.10;;
7013;SDS011;3547;50.774;12.918;2023-09-19T12:53:39;2.83;;;1.02;;
7013;SDS011;3547;50.774;12.918;2023-09-19T12:56:09;1.10;;;1.00;;
7013;SDS011;3547;50.774;12.918;2023-09-19T13:01:24;1.88;;;1.25;;
7013;SDS011;3547;50.774;12.918;2023-09-19T13:04:14;0.90;;;0.90;;
7013;SDS011;3547;50.774;12.918;2023-09-19T13:06:48;1.13;;;0.95;;
7013;SDS011;3547;50.774;12.918;2023-09-19T13:09:16;1.48;;;1.00;;
7013;SDS011;3547;50.774;12.918;2023-09-19T13:11:43;1.00;;;0.90;;
7013;SDS011;3547;50.774;12.918;2023-09-19T13:16:53;1.13;;;0.85;;
7013;SDS011;3547;50.774;12.918;2023-09-19T13:19:40;1.27;;;1.15;;
7013;SDS011;3547;50.774;12.918;2023-09-19T13:25:17;3.22;;;1.20;;
7013;SDS011;3547;50.774;12.918;2023-09-19T13:28:07;1.52;;;0.88;;
7013;SDS011;3547;50.774;12.918;2023-09-19T13:30:33;1.65;;;1.35;;
7013;SDS011;3547;50.774;12.918;2023-09-19T13:33:11;1.92;;;0.95;;
7013;SDS011;3547;50.774;12.918;2023-09-19T13:35:39;1.40;;;1.25;;
7013;SDS011;3547;50.774;12.918;2023-09-19T13:38:06;1.08;;;0.93;;
7013;SDS011;3547;50.774;12.918;2023-09-19T13:40:38;2.13;;;1.13;;
7013;SDS011;3547;50.774;12.918;2023-09-19T13:43:05;1.05;;;1.00;;
7013;SDS011;3547;50.774;12.918;2023-09-19T13:45:32;1.48;;;1.00;;
7013;SDS011;3547;50.774;12.918;2023-09-19T13:47:58;1.25;;;1.08;;
7013;SDS011;3547;50.774;12.918;2023-09-19T13:50:24;1.40;;;1.17;;
7013;SDS011;3547;50.774;12.918;2023-09-19T13:52:52;1.55;;;1.30;;
7013;SDS011;3547;50.774;12.918;2023-09-19T13:55:19;1.30;;;1.08;;
7013;SDS011;3547;50.774;12.918;2023-09-19T13:57:52;1.80;;;1.02;;
7013;SDS011;3547;50.774;12.918;2023-09-19T14:00:24;1.38;;;1.10;;
7013;SDS011;3547;50.774;12.918;2023-09-19T14:06:13;1.45;;;1.20;;
7013;SDS011;3547;50.774;12.918;2023-09-19T14:08:39;0.82;;;0.82;;
7013;SDS011;3547;50.774;12.918;2023-09-19T14:11:06;1.10;;;1.00;;
7013;SDS011;3547;50.774;12.918;2023-09-19T14:13:33;1.10;;;1.00;;
7013;SDS011;3547;50.774;12.918;2023-09-19T14:16:05;1.38;;;1.02;;
7013;SDS011;3547;50.774;12.918;2023-09-19T14:18:34;1.25;;;1.10;;
7013;SDS011;3547;50.774;12.918;2023-09-19T14:21:04;1.15;;;1.05;;
7013;SDS011;3547;50.774;12.918;2023-09-19T14:23:37;1.38;;;1.27;;
7013;SDS011;3547;50.774;12.918;2023-09-19T14:26:09;1.30;;;1.10;;
7013;SDS011;3547;50.774;12.918;2023-09-19T14:28:35;2.08;;;1.70;;
7013;SDS011;3547;50.774;12.918;2023-09-19T14:31:08;0.88;;;0.85;;
7013;SDS011;3547;50.774;12.918;2023-09-19T14:33:35;1.05;;;0.90;;
7013;SDS011;3547;50.774;12.918;2023-09-19T14:36:02;2.03;;;1.38;;
7013;SDS011;3547;50.774;12.918;2023-09-19T14:38:34;1.95;;;1.38;;
7013;SDS011;3547;50.774;12.918;2023-09-19T14:41:05;1.55;;;1.20;;
7013;SDS011;3547;50.774;12.918;2023-09-19T14:43:32;7.28;;;1.52;;
7013;SDS011;3547;50.774;12.918;2023-09-19T14:46:23;1.88;;;1.40;;
7013;SDS011;3547;50.774;12.918;2023-09-19T14:48:53;1.40;;;1.27;;
7013;SDS011;3547;50.774;12.918;2023-09-19T14:51:19;2.65;;;1.50;;
7013;SDS011;3547;50.774;12.918;2023-09-19T14:53:45;1.23;;;1.02;;
7013;SDS011;3547;50.774;12.918;2023-09-19T14:56:12;1.67;;;1.25;;
7013;SDS011;3547;50.774;12.918;2023-09-19T14:58:44;1.23;;;1.10;;
7013;SDS011;3547;50.774;12.918;2023-09-19T15:01:11;1.10;;;1.00;;
7013;SDS011;3547;50.774;12.918;2023-09-19T15:03:38;2.17;;;1.40;;
7013;SDS011;3547;50.774;12.918;2023-09-19T15:06:07;2.47;;;1.33;;
7013;SDS011;3547;50.774;12.918;2023-09-19T15:08:36;2.05;;;1.25;;
7013;SDS011;3547;50.774;12.918;2023-09-19T15:11:06;1.52;;;1.23;;
7013;SDS011;3547;50.774;12.918;2023-09-19T15:13:36;2.00;;;1.38;;
7013;SDS011;3547;50.774;12.918;2023-09-19T15:16:03;1.90;;;1.40;;
7013;SDS011;3547;50.774;12.918;2023-09-19T15:18:37;2.60;;;1.33;;
7013;SDS011;3547;50.774;12.918;2023-09-19T15:21:09;1.35;;;1.17;;
7013;SDS011;3547;50.774;12.918;2023-09-19T15:23:36;2.13;;;1.40;;
7013;SDS011;3547;50.774;12.918;2023-09-19T15:26:04;1.48;;;0.90;;
7013;SDS011;3547;50.774;12.918;2023-09-19T15:28:32;1.73;;;1.42;;
7013;SDS011;3547;50.774;12.918;2023-09-19T15:31:03;1.60;;;1.10;;
7013;SDS011;3547;50.774;12.918;2023-09-19T15:33:33;2.60;;;1.23;;
7013;SDS011;3547;50.774;12.918;2023-09-19T15:36:04;1.80;;;1.25;;
7013;SDS011;3547;50.774;12.918;2023-09-19T15:41:24;2.03;;;1.30;;
7013;SDS011;3547;50.774;12.918;2023-09-19T15:43:52;1.55;;;1.15;;
7013;SDS011;3547;50.774;12.918;2023-09-19T15:46:19;2.03;;;1.35;;
7013;SDS011;3547;50.774;12.918;2023-09-19T15:48:46;1.35;;;1.20;;
7013;SDS011;3547;50.774;12.918;2023-09-19T15:51:13;1.52;;;1.17;;
7013;SDS011;3547;50.774;12.918;2023-09-19T15:56:10;2.33;;;1.33;;
7013;SDS011;3547;50.774;12.918;2023-09-19T15:58:37;1.38;;;1.17;;
7013;SDS011;3547;50.774;12.918;2023-09-19T16:01:05;2.70;;;1.60;;
7013;SDS011;3547;50.774;12.918;2023-09-19T16:03:36;1.65;;;1.40;;
7013;SDS011;3547;50.774;12.918;2023-09-19T16:06:15;3.00;;;1.35;;
7013;SDS011;3547;50.774;12.918;2023-09-19T16:08:48;3.88;;;1.73;;
7013;SDS011;3547;50.774;12.918;2023-09-19T16:11:16;2.88;;;1.30;;
7013;SDS011;3547;50.774;12.918;2023-09-19T16:13:43;2.05;;;1.40;;
7013;SDS011;3547;50.774;12.918;2023-09-19T16:16:13;2.22;;;1.25;;
7013;SDS011;3547;50.774;12.918;2023-09-19T16:19:00;1.50;;;1.30;;
7013;SDS011;3547;50.774;12.918;2023-09-19T16:21:29;1.92;;;1.30;;
7013;SDS011;3547;50.774;12.918;2023-09-19T16:23:58;1.67;;;1.40;;
7013;SDS011;3547;50.774;12.918;2023-09-19T16:26:25;2.47;;;1.27;;
7013;SDS011;3547;50.774;12.918;2023-09-19T16:28:53;1.40;;;1.27;;
7013;SDS011;3547;50.774;12.918;2023-09-19T16:31:26;1.83;;;1.15;;
7013;SDS011;3547;50.774;12.918;2023-09-19T16:33:53;1.40;;;1.27;;
7013;SDS011;3547;50.774;12.918;2023-09-19T16:36:24;1.33;;;1.20;;
7013;SDS011;3547;50.774;12.918;2023-09-19T16:38:51;1.73;;;1.40;;
7013;SDS011;3547;50.774;12.918;2023-09-19T16:41:18;1.92;;;1.70;;
7013;SDS011;3547;50.774;12.918;2023-09-19T16:43:44;1.80;;;1.35;;